Time,TemperatureF,DewpointF,PressureIn,WindDirection,WindDirectionDegrees,WindSpeedMPH,WindSpeedGustMPH,Humidity,HourlyPrecipIn,Conditions,Clouds,dailyrainin,SoftwareType,DateUTC
2013-01-21 00:00:00,47.3,43.6,30.11,NE,45,0.0,1.0,87,0.00,,---,0.00,VWS V14.01,2013-01-21 06:00:00,
2013-01-21 00:30:00,46.7,43.9,30.12,NE,45,0.0,0.0,90,0.00,,---,0.00,VWS V14.01,2013-01-21 06:30:00,
2013-01-21 01:00:00,46.2,43.7,30.12,NE,45,0.0,1.0,91,0.00,,---,0.00,VWS V14.01,2013-01-21 07:00:00,
2013-01-21 01:30:00,45.4,43.2,30.12,NE,45,0.0,1.0,92,0.00,,---,0.00,VWS V14.01,2013-01-21 07:30:00,
2013-01-21 02:00:00,45.2,43.6,30.12,NE,45,0.0,0.0,94,0.00,,---,0.00,VWS V14.01,2013-01-21 08:00:00,
2013-01-21 02:30:00,44.4,42.8,30.12,NE,45,0.0,1.0,94,0.00,,---,0.00,VWS V14.01,2013-01-21 08:30:00,
2013-01-21 03:00:00,43.8,42.2,30.13,NE,45,0.0,1.0,94,0.00,,---,0.00,VWS V14.01,2013-01-21 09:00:00,
2013-01-21 03:30:00,43.5,41.9,30.13,NE,45,0.0,1.0,94,0.00,,---,0.00,VWS V14.01,2013-01-21 09:30:00,
2013-01-21 04:00:00,43.1,41.8,30.13,NE,45,0.0,1.0,95,0.00,,---,0.00,VWS V14.01,2013-01-21 10:00:00,
2013-01-21 04:30:00,43.6,42.3,30.12,NE,45,0.0,1.0,95,0.00,,---,0.00,VWS V14.01,2013-01-21 10:30:00,
2013-01-21 05:00:00,44.0,42.9,30.14,NNW,338,2.0,8.0,96,0.00,,---,0.00,VWS V14.01,2013-01-21 11:00:00,
2013-01-21 05:30:00,44.2,42.3,30.15,NNW,338,1.0,5.0,93,0.00,,---,0.00,VWS V14.01,2013-01-21 11:30:00,
2013-01-21 06:00:00,43.6,42.0,30.16,NW,315,0.0,5.0,94,0.00,,---,0.00,VWS V14.01,2013-01-21 12:00:00,
2013-01-21 06:30:00,43.7,41.8,30.17,NW,315,2.0,5.0,93,0.00,,---,0.00,VWS V14.01,2013-01-21 12:30:00,
2013-01-21 07:00:00,43.1,40.9,30.18,NNW,338,3.0,7.0,92,0.00,,---,0.00,VWS V14.01,2013-01-21 13:00:00,
2013-01-21 07:30:00,42.3,39.6,30.18,NNW,338,4.0,7.0,90,0.00,,---,0.00,VWS V14.01,2013-01-21 13:30:00,
2013-01-21 08:00:00,42.0,38.4,30.19,NNW,338,4.0,8.0,87,0.00,,---,0.00,VWS V14.01,2013-01-21 14:00:00,
2013-01-21 08:30:00,42.8,38.3,30.20,NW,315,4.0,9.0,84,0.00,,---,0.00,VWS V14.01,2013-01-21 14:30:00,
2013-01-21 09:00:00,43.9,37.8,30.21,NNW,338,4.0,12.0,79,0.00,,---,0.00,VWS V14.01,2013-01-21 15:00:00,
2013-01-21 09:30:00,45.5,39.0,30.22,NNW,338,4.0,10.0,78,0.00,,---,0.00,VWS V14.01,2013-01-21 15:30:00,
2013-01-21 10:00:00,47.9,40.7,30.23,NNW,338,3.0,10.0,76,0.00,,---,0.00,VWS V14.01,2013-01-21 16:00:00,
2013-01-21 10:49:00,51.0,43.0,30.25,NE,40,3.0,3.0,74,0.00,,---,0.00,VWS V14.01,2013-01-21 16:49:00,
2013-01-21 10:54:00,51.2,43.2,30.25,ENE,77,1.0,9.0,74,0.00,,---,0.00,VWS V14.01,2013-01-21 16:54:00,
2013-01-21 10:59:00,51.8,43.8,30.25,North,5,5.0,9.0,74,0.00,,---,0.00,VWS V14.01,2013-01-21 16:59:00,
2013-01-21 11:04:00,52.3,43.9,30.25,NE,44,6.0,7.0,73,0.00,,---,0.00,VWS V14.01,2013-01-21 17:04:00,
2013-01-21 11:09:00,52.5,44.1,30.25,NNW,334,6.0,11.0,73,0.00,,---,0.00,VWS V14.01,2013-01-21 17:09:00,
2013-01-21 11:14:00,52.5,43.8,30.25,NNE,27,6.0,11.0,72,0.00,,---,0.00,VWS V14.01,2013-01-21 17:14:00,
2013-01-21 11:19:00,52.8,44.0,30.25,NE,44,2.0,11.0,72,0.00,,---,0.00,VWS V14.01,2013-01-21 17:19:00,
2013-01-21 11:24:00,53.3,44.2,30.25,NNE,21,5.0,11.0,71,0.00,,---,0.00,VWS V14.01,2013-01-21 17:24:00,
2013-01-21 11:29:00,53.6,44.1,30.24,NNE,21,6.0,12.0,70,0.00,,---,0.00,VWS V14.01,2013-01-21 17:29:00,
2013-01-21 11:34:00,53.8,43.9,30.24,North,350,5.0,8.0,69,0.00,,---,0.00,VWS V14.01,2013-01-21 17:34:00,
2013-01-21 11:39:00,53.8,43.9,30.24,NE,39,7.0,10.0,69,0.00,,---,0.00,VWS V14.01,2013-01-21 17:39:00,
2013-01-21 11:44:00,54.1,44.2,30.24,NE,50,6.0,12.0,69,0.00,,---,0.00,VWS V14.01,2013-01-21 17:44:00,
2013-01-21 11:49:00,54.2,43.9,30.24,ENE,72,4.0,12.0,68,0.00,,---,0.00,VWS V14.01,2013-01-21 17:49:00,
2013-01-21 11:54:00,54.3,44.4,30.24,NNE,19,4.0,12.0,69,0.00,,---,0.00,VWS V14.01,2013-01-21 17:54:00,
2013-01-21 11:59:00,54.7,44.4,30.24,NE,53,3.0,12.0,68,0.00,,---,0.00,VWS V14.01,2013-01-21 17:59:00,
2013-01-21 12:04:00,55.1,44.3,30.24,NNE,12,5.0,8.0,67,0.00,,---,0.00,VWS V14.01,2013-01-21 18:04:00,
2013-01-21 12:09:00,55.3,43.8,30.24,NNW,340,4.0,9.0,65,0.00,,---,0.00,VWS V14.01,2013-01-21 18:09:00,
2013-01-21 12:14:00,55.7,44.5,30.23,NNE,20,7.0,9.0,66,0.00,,---,0.00,VWS V14.01,2013-01-21 18:14:00,
2013-01-21 12:19:00,55.9,44.3,30.23,NNE,30,7.0,9.0,65,0.00,,---,0.00,VWS V14.01,2013-01-21 18:19:00,
2013-01-21 12:24:00,56.2,44.6,30.23,NW,316,3.0,9.0,65,0.00,,---,0.00,VWS V14.01,2013-01-21 18:24:00,
2013-01-21 12:29:00,56.4,44.0,30.22,NW,313,2.0,9.0,63,0.00,,---,0.00,VWS V14.01,2013-01-21 18:29:00,
2013-01-21 12:34:00,56.6,43.8,30.22,NW,323,4.0,8.0,62,0.00,,---,0.00,VWS V14.01,2013-01-21 18:34:00,
2013-01-21 12:39:00,57.0,44.1,30.22,North,352,4.0,8.0,62,0.00,,---,0.00,VWS V14.01,2013-01-21 18:39:00,
2013-01-21 12:44:00,57.3,43.5,30.21,ENE,78,5.0,8.0,60,0.00,,---,0.00,VWS V14.01,2013-01-21 18:44:00,
2013-01-21 12:49:00,57.4,43.2,30.21,NE,43,5.0,8.0,59,0.00,,---,0.00,VWS V14.01,2013-01-21 18:49:00,
2013-01-21 12:54:00,57.3,43.5,30.21,SE,139,2.0,10.0,60,0.00,,---,0.00,VWS V14.01,2013-01-21 18:54:00,
2013-01-21 12:59:00,57.4,43.2,30.21,NNE,32,6.0,10.0,59,0.00,,---,0.00,VWS V14.01,2013-01-21 18:59:00,
2013-01-21 13:04:00,57.4,43.2,30.21,NNW,346,6.0,7.0,59,0.00,,---,0.00,VWS V14.01,2013-01-21 19:04:00,
2013-01-21 13:09:00,57.5,43.3,30.20,NNE,24,2.0,10.0,59,0.00,,---,0.00,VWS V14.01,2013-01-21 19:09:00,
2013-01-21 13:14:00,57.4,43.6,30.20,North,4,3.0,12.0,60,0.00,,---,0.00,VWS V14.01,2013-01-21 19:14:00,
2013-01-21 13:19:00,57.4,44.1,30.20,NNE,21,4.0,12.0,61,0.00,,---,0.00,VWS V14.01,2013-01-21 19:19:00,
2013-01-21 13:24:00,57.5,42.8,30.20,NE,39,2.0,12.0,58,0.00,,---,0.00,VWS V14.01,2013-01-21 19:24:00,
2013-01-21 13:29:00,57.9,42.8,30.20,NNW,338,4.0,12.0,57,0.00,,---,0.00,VWS V14.01,2013-01-21 19:29:00,
2013-01-21 13:34:00,58.1,42.5,30.20,NW,312,2.0,7.0,56,0.00,,---,0.00,VWS V14.01,2013-01-21 19:34:00,
2013-01-21 13:39:00,58.0,43.8,30.20,East,85,2.0,7.0,59,0.00,,---,0.00,VWS V14.01,2013-01-21 19:39:00,
2013-01-21 13:44:00,58.0,43.8,30.20,East,84,1.0,7.0,59,0.00,,---,0.00,VWS V14.01,2013-01-21 19:44:00,
2013-01-21 13:49:00,58.3,43.6,30.20,NNE,28,3.0,8.0,58,0.00,,---,0.00,VWS V14.01,2013-01-21 19:49:00,
2013-01-21 13:54:00,58.4,43.7,30.20,NE,54,4.0,8.0,58,0.00,,---,0.00,VWS V14.01,2013-01-21 19:54:00,
2013-01-21 13:59:00,58.5,43.8,30.20,WSW,239,2.0,8.0,58,0.00,,---,0.00,VWS V14.01,2013-01-21 19:59:00,
2013-01-21 14:04:00,58.5,44.2,30.20,East,82,3.0,6.0,59,0.00,,---,0.00,VWS V14.01,2013-01-21 20:04:00,
2013-01-21 14:09:00,58.4,44.1,30.20,NE,50,5.0,6.0,59,0.00,,---,0.00,VWS V14.01,2013-01-21 20:09:00,
2013-01-21 14:14:00,58.1,43.0,30.20,East,80,6.0,7.0,57,0.00,,---,0.00,VWS V14.01,2013-01-21 20:14:00,
2013-01-21 14:19:00,58.3,43.2,30.20,NE,41,2.0,7.0,57,0.00,,---,0.00,VWS V14.01,2013-01-21 20:19:00,
2013-01-21 14:24:00,58.5,42.9,30.20,East,82,3.0,7.0,56,0.00,,---,0.00,VWS V14.01,2013-01-21 20:24:00,
2013-01-21 14:29:00,58.6,43.0,30.20,ENE,67,4.0,7.0,56,0.00,,---,0.00,VWS V14.01,2013-01-21 20:29:00,
2013-01-21 14:34:00,58.6,43.4,30.20,NE,52,2.0,6.0,57,0.00,,---,0.00,VWS V14.01,2013-01-21 20:34:00,
2013-01-21 14:39:00,58.6,43.4,30.20,East,79,2.0,6.0,57,0.00,,---,0.00,VWS V14.01,2013-01-21 20:39:00,
2013-01-21 14:44:00,58.5,43.3,30.20,ENE,63,4.0,6.0,57,0.00,,---,0.00,VWS V14.01,2013-01-21 20:44:00,
2013-01-21 14:49:00,58.8,43.2,30.20,East,84,1.0,6.0,56,0.00,,---,0.00,VWS V14.01,2013-01-21 20:49:00,
2013-01-21 14:54:00,58.9,43.7,30.20,ENE,73,3.0,6.0,57,0.00,,---,0.00,VWS V14.01,2013-01-21 20:54:00,
2013-01-21 14:59:00,58.9,42.8,30.20,ENE,62,4.0,6.0,55,0.00,,---,0.00,VWS V14.01,2013-01-21 20:59:00,
2013-01-21 15:04:00,59.0,43.3,30.20,ENE,77,2.0,4.0,56,0.00,,---,0.00,VWS V14.01,2013-01-21 21:04:00,
2013-01-21 15:09:00,58.9,42.8,30.20,NE,56,3.0,5.0,55,0.00,,---,0.00,VWS V14.01,2013-01-21 21:09:00,
2013-01-21 15:14:00,59.1,42.0,30.20,NE,41,3.0,5.0,53,0.00,,---,0.00,VWS V14.01,2013-01-21 21:14:00,
2013-01-21 15:19:00,59.1,42.0,30.20,ENE,73,0.0,5.0,53,0.00,,---,0.00,VWS V14.01,2013-01-21 21:19:00,
2013-01-21 15:24:00,59.3,41.7,30.20,NNE,31,1.0,5.0,52,0.00,,---,0.00,VWS V14.01,2013-01-21 21:24:00,
2013-01-21 15:29:00,59.2,43.1,30.20,NE,34,2.0,5.0,55,0.00,,---,0.00,VWS V14.01,2013-01-21 21:29:00,
2013-01-21 15:34:00,59.2,42.1,30.20,NE,39,4.0,5.0,53,0.00,,---,0.00,VWS V14.01,2013-01-21 21:34:00,
2013-01-21 15:39:00,59.2,42.1,30.20,NNE,24,4.0,5.0,53,0.00,,---,0.00,VWS V14.01,2013-01-21 21:39:00,
2013-01-21 15:44:00,59.3,43.2,30.20,ESE,108,2.0,5.0,55,0.00,,---,0.00,VWS V14.01,2013-01-21 21:44:00,
2013-01-21 15:49:00,58.9,41.8,30.20,NE,51,3.0,6.0,53,0.00,,---,0.00,VWS V14.01,2013-01-21 21:49:00,
2013-01-21 15:54:00,58.9,41.8,30.20,East,86,0.0,6.0,53,0.00,,---,0.00,VWS V14.01,2013-01-21 21:54:00,
2013-01-21 15:59:00,58.9,42.8,30.20,SE,127,1.0,6.0,55,0.00,,---,0.00,VWS V14.01,2013-01-21 21:59:00,
2013-01-21 16:04:00,58.6,42.0,30.20,East,96,5.0,6.0,54,0.00,,---,0.00,VWS V14.01,2013-01-21 22:04:00,
2013-01-21 16:09:00,58.6,42.0,30.20,ESE,105,1.0,6.0,54,0.00,,---,0.00,VWS V14.01,2013-01-21 22:09:00,
2013-01-21 16:14:00,58.5,42.4,30.20,ENE,70,2.0,6.0,55,0.00,,---,0.00,VWS V14.01,2013-01-21 22:14:00,
2013-01-21 16:19:00,58.4,42.8,30.20,East,80,1.0,6.0,56,0.00,,---,0.00,VWS V14.01,2013-01-21 22:19:00,
2013-01-21 16:24:00,58.4,42.8,30.20,East,81,0.0,6.0,56,0.00,,---,0.00,VWS V14.01,2013-01-21 22:24:00,
2013-01-21 16:29:00,58.6,42.5,30.20,ENE,57,2.0,6.0,55,0.00,,---,0.00,VWS V14.01,2013-01-21 22:29:00,
2013-01-21 16:34:00,58.4,42.8,30.20,East,82,1.0,3.0,56,0.00,,---,0.00,VWS V14.01,2013-01-21 22:34:00,
2013-01-21 16:39:00,58.1,43.0,30.20,NE,51,2.0,3.0,57,0.00,,---,0.00,VWS V14.01,2013-01-21 22:39:00,
2013-01-21 16:44:00,57.8,42.2,30.20,NE,47,2.0,4.0,56,0.00,,---,0.00,VWS V14.01,2013-01-21 22:44:00,
2013-01-21 16:49:00,57.8,41.3,30.20,NNE,32,2.0,4.0,54,0.00,,---,0.00,VWS V14.01,2013-01-21 22:49:00,
2013-01-21 16:54:00,57.5,41.5,30.20,NE,34,2.0,4.0,55,0.00,,---,0.00,VWS V14.01,2013-01-21 22:54:00,
2013-01-21 16:59:00,57.2,41.2,30.20,NE,37,2.0,4.0,55,0.00,,---,0.00,VWS V14.01,2013-01-21 22:59:00,
2013-01-21 17:04:00,57.1,41.6,30.20,ENE,67,2.0,4.0,56,0.00,,---,0.00,VWS V14.01,2013-01-21 23:04:00,
2013-01-21 17:09:00,56.9,42.7,30.20,SE,125,3.0,4.0,59,0.00,,---,0.00,VWS V14.01,2013-01-21 23:09:00,
2013-01-21 17:14:00,56.7,41.7,30.20,ENE,68,3.0,5.0,57,0.00,,---,0.00,VWS V14.01,2013-01-21 23:14:00,
2013-01-21 17:19:00,56.2,42.1,30.20,ENE,71,1.0,5.0,59,0.00,,---,0.00,VWS V14.01,2013-01-21 23:19:00,
2013-01-21 17:24:00,56.0,41.9,30.20,East,100,1.0,5.0,59,0.00,,---,0.00,VWS V14.01,2013-01-21 23:24:00,
2013-01-21 17:29:00,55.7,41.6,30.20,East,82,1.0,5.0,59,0.00,,---,0.00,VWS V14.01,2013-01-21 23:29:00,
2013-01-21 17:34:00,55.5,41.9,30.20,East,82,0.0,3.0,60,0.00,,---,0.00,VWS V14.01,2013-01-21 23:34:00,
2013-01-21 17:39:00,55.1,41.5,30.19,NE,53,0.0,3.0,60,0.00,,---,0.00,VWS V14.01,2013-01-21 23:39:00,
2013-01-21 17:44:00,54.8,41.2,30.20,ENE,63,1.0,3.0,60,0.00,,---,0.00,VWS V14.01,2013-01-21 23:44:00,
2013-01-21 17:49:00,54.4,41.2,30.20,ESE,103,0.0,3.0,61,0.00,,---,0.00,VWS V14.01,2013-01-21 23:49:00,
2013-01-21 17:54:00,54.1,41.0,30.20,NE,54,2.0,3.0,61,0.00,,---,0.00,VWS V14.01,2013-01-21 23:54:00,
2013-01-21 17:59:00,53.7,41.8,30.20,NE,56,2.0,3.0,64,0.00,,---,0.00,VWS V14.01,2013-01-21 23:59:00,
2013-01-21 18:04:00,53.3,41.5,30.20,NE,51,2.0,3.0,64,0.00,,---,0.00,VWS V14.01,2013-01-22 00:04:00,
2013-01-21 18:09:00,52.8,41.8,30.20,NE,35,0.0,4.0,66,0.00,,---,0.00,VWS V14.01,2013-01-22 00:09:00,
2013-01-21 18:14:00,52.1,41.9,30.20,NE,56,1.0,4.0,68,0.00,,---,0.00,VWS V14.01,2013-01-22 00:14:00,
2013-01-21 18:19:00,51.9,41.7,30.20,NE,43,3.0,4.0,68,0.00,,---,0.00,VWS V14.01,2013-01-22 00:19:00,
2013-01-21 18:24:00,51.9,40.9,30.20,NE,48,2.0,4.0,66,0.00,,---,0.00,VWS V14.01,2013-01-22 00:24:00,
2013-01-21 18:29:00,51.9,40.9,30.20,NE,56,1.0,4.0,66,0.00,,---,0.00,VWS V14.01,2013-01-22 00:29:00,
2013-01-21 18:34:00,51.6,41.4,30.20,NNE,30,0.0,1.0,68,0.00,,---,0.00,VWS V14.01,2013-01-22 00:34:00,
2013-01-21 18:39:00,50.8,40.6,30.20,NE,44,0.0,1.0,68,0.00,,---,0.00,VWS V14.01,2013-01-22 00:39:00,
2013-01-21 18:44:00,50.7,40.5,30.20,NE,51,2.0,3.0,68,0.00,,---,0.00,VWS V14.01,2013-01-22 00:44:00,
2013-01-21 18:49:00,50.9,40.3,30.20,ENE,58,1.0,3.0,67,0.00,,---,0.00,VWS V14.01,2013-01-22 00:49:00,
2013-01-21 18:54:00,50.9,40.7,30.20,East,95,1.0,3.0,68,0.00,,---,0.00,VWS V14.01,2013-01-22 00:54:00,
2013-01-21 18:59:00,50.7,40.2,30.20,East,91,0.0,3.0,67,0.00,,---,0.00,VWS V14.01,2013-01-22 00:59:00,
2013-01-21 19:04:00,50.4,39.9,30.20,ENE,68,1.0,2.0,67,0.00,,---,0.00,VWS V14.01,2013-01-22 01:04:00,
2013-01-21 19:09:00,50.3,39.4,30.20,ENE,66,1.0,2.0,66,0.00,,---,0.00,VWS V14.01,2013-01-22 01:09:00,
2013-01-21 19:14:00,50.2,40.1,30.20,NE,43,1.0,2.0,68,0.00,,---,0.00,VWS V14.01,2013-01-22 01:14:00,
2013-01-21 19:19:00,49.6,39.9,30.21,NE,43,1.0,2.0,69,0.00,,---,0.00,VWS V14.01,2013-01-22 01:19:00,
2013-01-21 19:24:00,48.8,39.5,30.21,NE,42,0.0,2.0,70,0.00,,---,0.00,VWS V14.01,2013-01-22 01:24:00,
2013-01-21 19:29:00,48.3,39.0,30.21,NE,43,0.0,2.0,70,0.00,,---,0.00,VWS V14.01,2013-01-22 01:29:00,
2013-01-21 19:34:00,48.0,38.7,30.21,NE,43,0.0,0.0,70,0.00,,---,0.00,VWS V14.01,2013-01-22 01:34:00,
2013-01-21 19:39:00,47.7,39.1,30.20,NE,43,0.0,1.0,72,0.00,,---,0.00,VWS V14.01,2013-01-22 01:39:00,
2013-01-21 19:44:00,47.6,39.0,30.20,NE,43,0.0,1.0,72,0.00,,---,0.00,VWS V14.01,2013-01-22 01:44:00,
2013-01-21 19:49:00,47.3,38.7,30.20,NE,42,0.0,1.0,72,0.00,,---,0.00,VWS V14.01,2013-01-22 01:49:00,
2013-01-21 19:54:00,47.2,38.7,30.21,NE,43,0.0,1.0,72,0.00,,---,0.00,VWS V14.01,2013-01-22 01:54:00,
2013-01-21 19:59:00,47.0,38.5,30.21,NE,43,0.0,1.0,72,0.00,,---,0.00,VWS V14.01,2013-01-22 01:59:00,
2013-01-21 20:04:00,47.0,38.1,30.21,NE,43,0.0,1.0,71,0.00,,---,0.00,VWS V14.01,2013-01-22 02:04:00,
2013-01-21 20:09:00,47.1,37.5,30.22,NE,43,0.0,1.0,69,0.00,,---,0.00,VWS V14.01,2013-01-22 02:09:00,
2013-01-21 20:14:00,47.2,37.2,30.22,NNE,25,1.0,2.0,68,0.00,,---,0.00,VWS V14.01,2013-01-22 02:14:00,
2013-01-21 20:19:00,47.5,37.5,30.22,North,9,1.0,2.0,68,0.00,,---,0.00,VWS V14.01,2013-01-22 02:19:00,
2013-01-21 20:24:00,48.0,37.2,30.22,NE,41,0.0,2.0,66,0.00,,---,0.00,VWS V14.01,2013-01-22 02:24:00,
2013-01-21 20:29:00,48.5,37.3,30.22,NE,50,1.0,2.0,65,0.00,,---,0.00,VWS V14.01,2013-01-22 02:29:00,
2013-01-21 20:34:00,48.7,37.1,30.22,ENE,58,1.0,3.0,64,0.00,,---,0.00,VWS V14.01,2013-01-22 02:34:00,
2013-01-21 20:39:00,48.7,37.5,30.22,ENE,58,1.0,3.0,65,0.00,,---,0.00,VWS V14.01,2013-01-22 02:39:00,
2013-01-21 20:44:00,48.7,37.5,30.22,ENE,74,1.0,3.0,65,0.00,,---,0.00,VWS V14.01,2013-01-22 02:44:00,
2013-01-21 20:49:00,48.7,37.1,30.22,NE,48,2.0,3.0,64,0.00,,---,0.00,VWS V14.01,2013-01-22 02:49:00,
2013-01-21 20:54:00,48.6,36.6,30.23,NNE,33,0.0,4.0,63,0.00,,---,0.00,VWS V14.01,2013-01-22 02:54:00,
2013-01-21 20:59:00,48.3,36.7,30.23,NNE,15,0.0,4.0,64,0.00,,---,0.00,VWS V14.01,2013-01-22 02:59:00,
2013-01-21 21:04:00,48.0,36.8,30.23,NNE,22,2.0,2.0,65,0.00,,---,0.00,VWS V14.01,2013-01-22 03:04:00,
2013-01-21 21:09:00,47.7,37.7,30.23,NE,36,2.0,2.0,68,0.00,,---,0.00,VWS V14.01,2013-01-22 03:09:00,
2013-01-21 21:14:00,47.5,37.8,30.23,NE,35,1.0,2.0,69,0.00,,---,0.00,VWS V14.01,2013-01-22 03:14:00,
2013-01-21 21:19:00,47.3,37.7,30.23,NE,35,1.0,2.0,69,0.00,,---,0.00,VWS V14.01,2013-01-22 03:19:00,
2013-01-21 21:24:00,46.8,37.5,30.23,NE,34,0.0,2.0,70,0.00,,---,0.00,VWS V14.01,2013-01-22 03:24:00,
2013-01-21 21:29:00,46.3,37.1,30.23,NE,34,0.0,2.0,70,0.00,,---,0.00,VWS V14.01,2013-01-22 03:29:00,
2013-01-21 21:34:00,46.0,37.1,30.23,NE,49,0.0,1.0,71,0.00,,---,0.00,VWS V14.01,2013-01-22 03:34:00,
2013-01-21 21:39:00,45.9,37.4,30.24,NE,50,1.0,2.0,72,0.00,,---,0.00,VWS V14.01,2013-01-22 03:39:00,
2013-01-21 21:44:00,45.5,37.0,30.24,NE,50,1.0,2.0,72,0.00,,---,0.00,VWS V14.01,2013-01-22 03:44:00,
2013-01-21 21:49:00,45.7,36.5,30.24,NE,47,2.0,3.0,70,0.00,,---,0.00,VWS V14.01,2013-01-22 03:49:00,
2013-01-21 21:54:00,45.9,37.0,30.24,NE,56,1.0,3.0,71,0.00,,---,0.00,VWS V14.01,2013-01-22 03:54:00,
2013-01-21 21:59:00,45.4,36.9,30.24,NE,39,0.0,3.0,72,0.00,,---,0.00,VWS V14.01,2013-01-22 03:59:00,
2013-01-21 22:04:00,45.1,37.0,30.24,NE,49,0.0,1.0,73,0.00,,---,0.00,VWS V14.01,2013-01-22 04:04:00,
2013-01-21 22:09:00,45.5,36.7,30.24,NE,50,2.0,4.0,71,0.00,,---,0.00,VWS V14.01,2013-01-22 04:09:00,
2013-01-21 22:14:00,46.1,36.1,30.24,NE,46,3.0,4.0,68,0.00,,---,0.00,VWS V14.01,2013-01-22 04:14:00,
2013-01-21 22:19:00,46.3,36.0,30.24,NE,54,2.0,4.0,67,0.00,,---,0.00,VWS V14.01,2013-01-22 04:19:00,
2013-01-21 22:24:00,46.3,36.0,30.24,NE,50,3.0,4.0,67,0.00,,---,0.00,VWS V14.01,2013-01-22 04:24:00,
2013-01-21 22:29:00,46.3,36.0,30.24,NE,44,2.0,4.0,67,0.00,,---,0.00,VWS V14.01,2013-01-22 04:29:00,
2013-01-21 22:34:00,46.3,35.6,30.24,NE,53,1.0,3.0,66,0.00,,---,0.00,VWS V14.01,2013-01-22 04:34:00,
2013-01-21 22:39:00,46.2,35.5,30.24,NE,48,2.0,3.0,66,0.00,,---,0.00,VWS V14.01,2013-01-22 04:39:00,
2013-01-21 22:44:00,46.1,35.4,30.24,NE,55,0.0,3.0,66,0.00,,---,0.00,VWS V14.01,2013-01-22 04:44:00,
2013-01-21 22:49:00,46.0,35.7,30.24,NE,56,2.0,4.0,67,0.00,,---,0.00,VWS V14.01,2013-01-22 04:49:00,
2013-01-21 22:54:00,45.6,35.7,30.24,NE,37,1.0,4.0,68,0.00,,---,0.00,VWS V14.01,2013-01-22 04:54:00,
2013-01-21 22:59:00,45.2,35.7,30.24,NE,41,0.0,4.0,69,0.00,,---,0.00,VWS V14.01,2013-01-22 04:59:00,
2013-01-21 23:00:00,45.1,35.5,30.24,NE,41,2.0,4.0,69,0.00,,---,0.00,VWS V14.01,2013-01-22 05:00:00,
2013-01-21 23:01:00,45.0,35.5,30.24,NE,41,1.0,4.0,69,0.00,,---,0.00,VWS V14.01,2013-01-22 05:01:00,
2013-01-21 23:06:00,44.7,35.5,30.24,NE,41,0.0,2.0,70,0.00,,---,0.00,VWS V14.01,2013-01-22 05:06:00,
2013-01-21 23:11:00,44.4,35.6,30.24,NE,41,1.0,2.0,71,0.00,,---,0.00,VWS V14.01,2013-01-22 05:11:00,
2013-01-21 23:16:00,44.5,35.3,30.24,NE,46,0.0,2.0,70,0.00,,---,0.00,VWS V14.01,2013-01-22 05:16:00,
2013-01-21 23:21:00,44.7,35.5,30.24,ENE,60,1.0,2.0,70,0.00,,---,0.00,VWS V14.01,2013-01-22 05:21:00,
2013-01-21 23:26:00,44.7,35.5,30.24,ENE,76,1.0,2.0,70,0.00,,---,0.00,VWS V14.01,2013-01-22 05:26:00,
2013-01-21 23:31:00,44.7,35.5,30.24,NE,48,2.0,2.0,70,0.00,,---,0.00,VWS V14.01,2013-01-22 05:31:00,
2013-01-21 23:36:00,44.6,35.1,30.24,NE,53,0.0,2.0,69,0.00,,---,0.00,VWS V14.01,2013-01-22 05:36:00,
2013-01-21 23:41:00,44.2,35.4,30.24,NE,37,0.0,2.0,71,0.00,,---,0.00,VWS V14.01,2013-01-22 05:41:00,
2013-01-21 23:46:00,43.6,35.2,30.24,NE,37,0.0,2.0,72,0.00,,---,0.00,VWS V14.01,2013-01-22 05:46:00,
2013-01-21 23:51:00,43.1,35.0,30.25,NE,37,0.0,2.0,73,0.00,,---,0.00,VWS V14.01,2013-01-22 05:51:00,
2013-01-21 23:56:00,42.9,34.5,30.25,NNE,19,1.0,2.0,72,0.00,,---,0.00,VWS V14.01,2013-01-22 05:56:00,